sensor_id;sensor_type;location;lat;lon;timestamp;P1;durP1;ratioP1;P2;durP2;ratioP2
37453;SDS011;23315;52.078;4.756;2023-11-22T00:01:56;9.68;;;6.85;;
37453;SDS011;23315;52.078;4.756;2023-11-22T00:04:22;8.40;;;6.40;;
37453;SDS011;23315;52.078;4.756;2023-11-22T00:06:47;10.30;;;7.65;;
37453;SDS011;23315;52.078;4.756;2023-11-22T00:09:13;16.60;;;8.48;;
37453;SDS011;23315;52.078;4.756;2023-11-22T00:11:39;11.98;;;8.18;;
37453;SDS011;23315;52.078;4.756;2023-11-22T00:14:04;11.73;;;8.13;;
37453;SDS011;23315;52.078;4.756;2023-11-22T00:16:31;11.88;;;7.57;;
37453;SDS011;23315;52.078;4.756;2023-11-22T00:18:57;12.38;;;7.88;;
37453;SDS011;23315;52.078;4.756;2023-11-22T00:21:22;10.77;;;7.10;;
37453;SDS011;23315;52.078;4.756;2023-11-22T00:23:47;11.40;;;7.35;;
37453;SDS011;23315;52.078;4.756;2023-11-22T00:26:13;12.57;;;7.53;;
37453;SDS011;23315;52.078;4.756;2023-11-22T00:28:38;10.50;;;6.85;;
37453;SDS011;23315;52.078;4.756;2023-11-22T00:31:03;12.63;;;7.65;;
37453;SDS011;23315;52.078;4.756;2023-11-22T00:33:29;10.48;;;7.70;;
37453;SDS011;23315;52.078;4.756;2023-11-22T00:35:56;11.35;;;8.15;;
37453;SDS011;23315;52.078;4.756;2023-11-22T00:38:23;11.80;;;7.78;;
37453;SDS011;23315;52.078;4.756;2023-11-22T00:40:49;13.10;;;8.88;;
37453;SDS011;23315;52.078;4.756;2023-11-22T00:43:15;10.13;;;7.63;;
37453;SDS011;23315;52.078;4.756;2023-11-22T00:45:40;10.85;;;7.07;;
37453;SDS011;23315;52.078;4.756;2023-11-22T00:48:06;13.82;;;9.63;;
37453;SDS011;23315;52.078;4.756;2023-11-22T00:50:31;13.98;;;9.10;;
37453;SDS011;23315;52.078;4.756;2023-11-22T00:52:56;12.18;;;8.77;;
37453;SDS011;23315;52.078;4.756;2023-11-22T00:55:22;10.48;;;7.18;;
37453;SDS011;23315;52.078;4.756;2023-11-22T00:57:47;10.30;;;7.43;;
37453;SDS011;23315;52.078;4.756;2023-11-22T01:00:12;13.43;;;8.63;;
37453;SDS011;23315;52.078;4.756;2023-11-22T01:02:40;12.35;;;8.73;;
37453;SDS011;23315;52.078;4.756;2023-11-22T01:05:06;13.93;;;8.45;;
37453;SDS011;23315;52.078;4.756;2023-11-22T01:07:35;14.23;;;9.18;;
37453;SDS011;23315;52.078;4.756;2023-11-22T01:10:00;10.55;;;7.90;;
37453;SDS011;23315;52.078;4.756;2023-11-22T01:12:26;10.88;;;7.18;;
37453;SDS011;23315;52.078;4.756;2023-11-22T01:14:51;9.40;;;6.88;;
37453;SDS011;23315;52.078;4.756;2023-11-22T01:17:17;11.13;;;7.32;;
37453;SDS011;23315;52.078;4.756;2023-11-22T01:19:42;12.55;;;8.68;;
37453;SDS011;23315;52.078;4.756;2023-11-22T01:22:07;14.65;;;10.40;;
37453;SDS011;23315;52.078;4.756;2023-11-22T01:24:33;15.55;;;9.52;;
37453;SDS011;23315;52.078;4.756;2023-11-22T01:26:58;12.40;;;8.70;;
37453;SDS011;23315;52.078;4.756;2023-11-22T01:29:24;10.93;;;7.03;;
37453;SDS011;23315;52.078;4.756;2023-11-22T01:31:49;12.82;;;8.70;;
37453;SDS011;23315;52.078;4.756;2023-11-22T01:34:14;14.20;;;9.52;;
37453;SDS011;23315;52.078;4.756;2023-11-22T01:36:43;14.43;;;8.10;;
37453;SDS011;23315;52.078;4.756;2023-11-22T01:39:14;10.27;;;7.55;;
37453;SDS011;23315;52.078;4.756;2023-11-22T01:41:39;10.20;;;6.75;;
37453;SDS011;23315;52.078;4.756;2023-11-22T01:44:07;12.10;;;7.47;;
37453;SDS011;23315;52.078;4.756;2023-11-22T01:46:33;9.60;;;7.78;;
37453;SDS011;23315;52.078;4.756;2023-11-22T01:48:58;10.98;;;7.20;;
37453;SDS011;23315;52.078;4.756;2023-11-22T01:51:25;9.52;;;7.18;;
37453;SDS011;23315;52.078;4.756;2023-11-22T01:53:51;10.77;;;7.10;;
37453;SDS011;23315;52.078;4.756;2023-11-22T01:56:19;13.90;;;7.78;;
37453;SDS011;23315;52.078;4.756;2023-11-22T01:58:45;9.95;;;8.00;;
37453;SDS011;23315;52.078;4.756;2023-11-22T02:01:10;10.27;;;7.40;;
37453;SDS011;23315;52.078;4.756;2023-11-22T02:03:37;8.75;;;6.65;;
37453;SDS011;23315;52.078;4.756;2023-11-22T02:06:03;10.07;;;6.82;;
37453;SDS011;23315;52.078;4.756;2023-11-22T02:08:30;10.07;;;7.25;;
37453;SDS011;23315;52.078;4.756;2023-11-22T02:10:59;9.23;;;6.80;;
37453;SDS011;23315;52.078;4.756;2023-11-22T02:13:25;9.68;;;6.88;;
37453;SDS011;23315;52.078;4.756;2023-11-22T02:15:51;9.38;;;6.40;;
37453;SDS011;23315;52.078;4.756;2023-11-22T02:18:17;13.90;;;7.53;;
37453;SDS011;23315;52.078;4.756;2023-11-22T02:20:43;9.52;;;6.90;;
37453;SDS011;23315;52.078;4.756;2023-11-22T02:23:08;11.77;;;7.80;;
37453;SDS011;23315;52.078;4.756;2023-11-22T02:25:34;13.40;;;8.25;;
37453;SDS011;23315;52.078;4.756;2023-11-22T02:28:00;10.25;;;7.35;;
37453;SDS011;23315;52.078;4.756;2023-11-22T02:30:27;11.82;;;6.43;;
37453;SDS011;23315;52.078;4.756;2023-11-22T02:32:52;8.88;;;6.00;;
37453;SDS011;23315;52.078;4.756;2023-11-22T02:35:19;11.68;;;7.60;;
37453;SDS011;23315;52.078;4.756;2023-11-22T02:37:44;10.57;;;7.35;;
37453;SDS011;23315;52.078;4.756;2023-11-22T02:40:20;14.57;;;8.68;;
37453;SDS011;23315;52.078;4.756;2023-11-22T02:42:50;9.82;;;6.93;;
37453;SDS011;23315;52.078;4.756;2023-11-22T02:45:16;12.68;;;8.20;;
37453;SDS011;23315;52.078;4.756;2023-11-22T02:47:43;9.13;;;7.07;;
37453;SDS011;23315;52.078;4.756;2023-11-22T02:50:09;11.65;;;7.25;;
37453;SDS011;23315;52.078;4.756;2023-11-22T02:52:36;13.27;;;8.05;;
37453;SDS011;23315;52.078;4.756;2023-11-22T02:55:02;11.98;;;7.35;;
37453;SDS011;23315;52.078;4.756;2023-11-22T02:57:28;9.35;;;6.60;;
37453;SDS011;23315;52.078;4.756;2023-11-22T02:59:53;12.18;;;7.35;;
37453;SDS011;23315;52.078;4.756;2023-11-22T03:02:18;11.90;;;7.63;;
37453;SDS011;23315;52.078;4.756;2023-11-22T03:04:44;12.98;;;8.40;;
37453;SDS011;23315;52.078;4.756;2023-11-22T03:07:09;11.23;;;7.70;;
37453;SDS011;23315;52.078;4.756;2023-11-22T03:09:35;12.75;;;8.20;;
37453;SDS011;23315;52.078;4.756;2023-11-22T03:12:01;11.32;;;7.53;;
37453;SDS011;23315;52.078;4.756;2023-11-22T03:14:27;10.95;;;7.90;;
37453;SDS011;23315;52.078;4.756;2023-11-22T03:16:53;11.18;;;6.40;;
37453;SDS011;23315;52.078;4.756;2023-11-22T03:19:18;10.45;;;7.18;;
37453;SDS011;23315;52.078;4.756;2023-11-22T03:21:44;9.43;;;6.13;;
37453;SDS011;23315;52.078;4.756;2023-11-22T03:24:10;9.95;;;6.10;;
37453;SDS011;23315;52.078;4.756;2023-11-22T03:26:36;9.77;;;6.10;;
37453;SDS011;23315;52.078;4.756;2023-11-22T03:29:01;8.40;;;6.20;;
37453;SDS011;23315;52.078;4.756;2023-11-22T03:31:27;9.52;;;6.15;;
37453;SDS011;23315;52.078;4.756;2023-11-22T03:33:56;9.15;;;6.05;;
37453;SDS011;23315;52.078;4.756;2023-11-22T03:36:22;9.98;;;6.03;;
37453;SDS011;23315;52.078;4.756;2023-11-22T03:38:48;9.07;;;5.97;;
37453;SDS011;23315;52.078;4.756;2023-11-22T03:41:14;9.18;;;6.60;;
37453;SDS011;23315;52.078;4.756;2023-11-22T03:43:39;10.77;;;6.07;;
37453;SDS011;23315;52.078;4.756;2023-11-22T03:46:04;10.52;;;6.85;;
37453;SDS011;23315;52.078;4.756;2023-11-22T03:48:30;11.02;;;6.97;;
37453;SDS011;23315;52.078;4.756;2023-11-22T03:50:56;9.60;;;7.10;;
37453;SDS011;23315;52.078;4.756;2023-11-22T03:53:21;9.45;;;6.40;;
37453;SDS011;23315;52.078;4.756;2023-11-22T03:55:48;11.77;;;6.57;;
37453;SDS011;23315;52.078;4.756;2023-11-22T03:58:14;8.13;;;6.28;;
37453;SDS011;23315;52.078;4.756;2023-11-22T04:00:40;9.48;;;6.63;;
37453;SDS011;23315;52.078;4.756;2023-11-22T04:03:05;9.50;;;5.72;;
37453;SDS011;23315;52.078;4.756;2023-11-22T04:05:31;10.10;;;5.88;;
37453;SDS011;23315;52.078;4.756;2023-11-22T04:07:57;9.77;;;6.32;;
37453;SDS011;23315;52.078;4.756;2023-11-22T04:10:22;7.50;;;5.40;;
37453;SDS011;23315;52.078;4.756;2023-11-22T04:12:48;8.52;;;5.40;;
37453;SDS011;23315;52.078;4.756;2023-11-22T04:15:14;8.63;;;5.40;;
37453;SDS011;23315;52.078;4.756;2023-11-22T04:17:40;6.90;;;5.63;;
37453;SDS011;23315;52.078;4.756;2023-11-22T04:20:06;7.78;;;5.65;;
37453;SDS011;23315;52.078;4.756;2023-11-22T04:22:35;8.38;;;5.82;;
37453;SDS011;23315;52.078;4.756;2023-11-22T04:25:05;9.15;;;5.70;;
37453;SDS011;23315;52.078;4.756;2023-11-22T04:27:30;8.13;;;6.22;;
37453;SDS011;23315;52.078;4.756;2023-11-22T04:29:56;10.32;;;6.82;;
37453;SDS011;23315;52.078;4.756;2023-11-22T04:32:21;10.40;;;6.40;;
37453;SDS011;23315;52.078;4.756;2023-11-22T04:34:47;10.25;;;6.82;;
37453;SDS011;23315;52.078;4.756;2023-11-22T04:37:12;10.35;;;6.60;;
37453;SDS011;23315;52.078;4.756;2023-11-22T04:39:38;9.95;;;6.13;;
37453;SDS011;23315;52.078;4.756;2023-11-22T04:42:03;12.15;;;7.80;;
37453;SDS011;23315;52.078;4.756;2023-11-22T04:44:29;11.85;;;8.65;;
37453;SDS011;23315;52.078;4.756;2023-11-22T04:46:54;13.90;;;7.93;;
37453;SDS011;23315;52.078;4.756;2023-11-22T04:49:19;12.35;;;8.00;;
37453;SDS011;23315;52.078;4.756;2023-11-22T04:51:44;12.35;;;8.38;;
37453;SDS011;23315;52.078;4.756;2023-11-22T04:54:10;12.35;;;8.73;;
37453;SDS011;23315;52.078;4.756;2023-11-22T04:56:36;13.07;;;8.50;;
37453;SDS011;23315;52.078;4.756;2023-11-22T04:59:01;12.10;;;8.50;;
37453;SDS011;23315;52.078;4.756;2023-11-22T05:01:31;15.20;;;9.48;;
37453;SDS011;23315;52.078;4.756;2023-11-22T05:03:57;13.80;;;9.05;;
37453;SDS011;23315;52.078;4.756;2023-11-22T05:06:23;12.93;;;9.10;;
37453;SDS011;23315;52.078;4.756;2023-11-22T05:08:49;14.63;;;9.93;;
37453;SDS011;23315;52.078;4.756;2023-11-22T05:11:14;12.73;;;9.68;;
37453;SDS011;23315;52.078;4.756;2023-11-22T05:13:41;13.30;;;9.52;;
37453;SDS011;23315;52.078;4.756;2023-11-22T05:16:08;17.67;;;11.50;;
37453;SDS011;23315;52.078;4.756;2023-11-22T05:18:33;23.67;;;14.68;;
37453;SDS011;23315;52.078;4.756;2023-11-22T05:20:59;25.67;;;15.38;;
37453;SDS011;23315;52.078;4.756;2023-11-22T05:23:24;19.33;;;13.50;;
37453;SDS011;23315;52.078;4.756;2023-11-22T05:25:50;21.63;;;14.05;;
37453;SDS011;23315;52.078;4.756;2023-11-22T05:28:15;22.92;;;14.35;;
37453;SDS011;23315;52.078;4.756;2023-11-22T05:30:41;21.73;;;13.35;;
37453;SDS011;23315;52.078;4.756;2023-11-22T05:33:06;24.23;;;14.52;;
37453;SDS011;23315;52.078;4.756;2023-11-22T05:35:32;26.27;;;15.50;;
37453;SDS011;23315;52.078;4.756;2023-11-22T05:37:58;25.20;;;16.75;;
37453;SDS011;23315;52.078;4.756;2023-11-22T05:40:23;23.42;;;15.15;;
37453;SDS011;23315;52.078;4.756;2023-11-22T05:42:49;28.35;;;16.33;;
37453;SDS011;23315;52.078;4.756;2023-11-22T05:45:14;30.63;;;17.42;;
37453;SDS011;23315;52.078;4.756;2023-11-22T05:47:39;24.58;;;15.90;;
37453;SDS011;23315;52.078;4.756;2023-11-22T05:50:07;27.42;;;17.60;;
37453;SDS011;23315;52.078;4.756;2023-11-22T05:52:32;29.05;;;17.38;;
37453;SDS011;23315;52.078;4.756;2023-11-22T05:54:58;28.50;;;17.88;;
37453;SDS011;23315;52.078;4.756;2023-11-22T05:57:23;28.08;;;16.55;;
37453;SDS011;23315;52.078;4.756;2023-11-22T05:59:48;28.60;;;17.90;;
37453;SDS011;23315;52.078;4.756;2023-11-22T06:02:14;24.85;;;17.20;;
37453;SDS011;23315;52.078;4.756;2023-11-22T06:04:39;25.33;;;16.45;;
37453;SDS011;23315;52.078;4.756;2023-11-22T06:07:04;21.85;;;14.68;;
37453;SDS011;23315;52.078;4.756;2023-11-22T06:09:30;26.83;;;17.05;;
37453;SDS011;23315;52.078;4.756;2023-11-22T06:11:55;26.48;;;16.90;;
37453;SDS011;23315;52.078;4.756;2023-11-22T06:14:21;25.80;;;16.23;;
37453;SDS011;23315;52.078;4.756;2023-11-22T06:16:46;25.88;;;16.25;;
37453;SDS011;23315;52.078;4.756;2023-11-22T06:19:12;24.70;;;14.88;;
37453;SDS011;23315;52.078;4.756;2023-11-22T06:21:37;25.23;;;15.25;;
37453;SDS011;23315;52.078;4.756;2023-11-22T06:24:03;25.08;;;15.80;;
37453;SDS011;23315;52.078;4.756;2023-11-22T06:26:33;24.48;;;15.13;;
37453;SDS011;23315;52.078;4.756;2023-11-22T06:28:59;24.33;;;14.88;;
37453;SDS011;23315;52.078;4.756;2023-11-22T06:31:25;23.40;;;14.68;;
37453;SDS011;23315;52.078;4.756;2023-11-22T06:33:50;25.45;;;15.43;;
37453;SDS011;23315;52.078;4.756;2023-11-22T06:36:17;27.30;;;15.15;;
37453;SDS011;23315;52.078;4.756;2023-11-22T06:38:43;23.08;;;14.85;;
37453;SDS011;23315;52.078;4.756;2023-11-22T06:41:08;22.55;;;14.40;;
37453;SDS011;23315;52.078;4.756;2023-11-22T06:43:34;28.77;;;15.40;;
37453;SDS011;23315;52.078;4.756;2023-11-22T06:45:59;22.50;;;15.32;;
37453;SDS011;23315;52.078;4.756;2023-11-22T06:48:27;26.20;;;16.48;;
37453;SDS011;23315;52.078;4.756;2023-11-22T06:50:52;27.00;;;16.83;;
37453;SDS011;23315;52.078;4.756;2023-11-22T06:53:18;24.63;;;16.52;;
37453;SDS011;23315;52.078;4.756;2023-11-22T06:55:44;23.85;;;15.27;;
37453;SDS011;23315;52.078;4.756;2023-11-22T06:58:10;23.83;;;15.73;;
37453;SDS011;23315;52.078;4.756;2023-11-22T07:00:36;23.88;;;15.23;;
37453;SDS011;23315;52.078;4.756;2023-11-22T07:03:01;23.88;;;15.23;;
37453;SDS011;23315;52.078;4.756;2023-11-22T07:05:26;25.48;;;15.68;;
37453;SDS011;23315;52.078;4.756;2023-11-22T07:07:52;24.95;;;14.68;;
37453;SDS011;23315;52.078;4.756;2023-11-22T07:10:19;24.92;;;15.57;;
37453;SDS011;23315;52.078;4.756;2023-11-22T07:12:45;27.27;;;16.52;;
37453;SDS011;23315;52.078;4.756;2023-11-22T07:15:12;26.02;;;15.45;;
37453;SDS011;23315;52.078;4.756;2023-11-22T07:17:38;27.73;;;15.50;;
37453;SDS011;23315;52.078;4.756;2023-11-22T07:20:04;28.83;;;17.13;;
37453;SDS011;23315;52.078;4.756;2023-11-22T07:22:34;26.70;;;15.77;;
37453;SDS011;23315;52.078;4.756;2023-11-22T07:25:00;25.60;;;15.80;;
37453;SDS011;23315;52.078;4.756;2023-11-22T07:27:27;26.58;;;16.98;;
37453;SDS011;23315;52.078;4.756;2023-11-22T07:29:53;26.45;;;15.95;;
37453;SDS011;23315;52.078;4.756;2023-11-22T07:32:18;25.48;;;16.20;;
37453;SDS011;23315;52.078;4.756;2023-11-22T07:34:45;23.25;;;15.88;;
37453;SDS011;23315;52.078;4.756;2023-11-22T07:37:11;27.33;;;15.93;;
37453;SDS011;23315;52.078;4.756;2023-11-22T07:39:37;26.27;;;16.80;;
37453;SDS011;23315;52.078;4.756;2023-11-22T07:42:04;26.48;;;16.33;;
37453;SDS011;23315;52.078;4.756;2023-11-22T07:44:33;25.70;;;16.42;;
37453;SDS011;23315;52.078;4.756;2023-11-22T07:47:00;27.85;;;18.63;;
37453;SDS011;23315;52.078;4.756;2023-11-22T07:49:26;26.23;;;15.45;;
37453;SDS011;23315;52.078;4.756;2023-11-22T07:51:52;25.92;;;15.30;;
37453;SDS011;23315;52.078;4.756;2023-11-22T07:54:18;28.35;;;17.52;;
37453;SDS011;23315;52.078;4.756;2023-11-22T07:56:44;24.92;;;16.05;;
37453;SDS011;23315;52.078;4.756;2023-11-22T07:59:12;26.05;;;16.20;;
37453;SDS011;23315;52.078;4.756;2023-11-22T08:01:38;23.63;;;15.52;;
37453;SDS011;23315;52.078;4.756;2023-11-22T08:04:03;26.00;;;15.77;;
37453;SDS011;23315;52.078;4.756;2023-11-22T08:06:30;27.17;;;14.65;;
37453;SDS011;23315;52.078;4.756;2023-11-22T08:08:58;30.98;;;18.08;;
37453;SDS011;23315;52.078;4.756;2023-11-22T08:11:26;26.02;;;15.73;;
37453;SDS011;23315;52.078;4.756;2023-11-22T08:13:56;28.50;;;16.35;;
37453;SDS011;23315;52.078;4.756;2023-11-22T08:16:25;32.95;;;17.25;;
37453;SDS011;23315;52.078;4.756;2023-11-22T08:18:51;27.92;;;15.68;;
37453;SDS011;23315;52.078;4.756;2023-11-22T08:21:17;27.65;;;17.38;;
37453;SDS011;23315;52.078;4.756;2023-11-22T08:23:43;29.50;;;16.67;;
37453;SDS011;23315;52.078;4.756;2023-11-22T08:26:10;23.88;;;15.88;;
37453;SDS011;23315;52.078;4.756;2023-11-22T08:28:36;27.27;;;16.92;;
37453;SDS011;23315;52.078;4.756;2023-11-22T08:31:02;26.13;;;15.05;;
37453;SDS011;23315;52.078;4.756;2023-11-22T08:33:29;26.58;;;15.82;;
37453;SDS011;23315;52.078;4.756;2023-11-22T08:35:54;26.58;;;16.23;;
37453;SDS011;23315;52.078;4.756;2023-11-22T08:38:24;25.63;;;15.30;;
37453;SDS011;23315;52.078;4.756;2023-11-22T08:40:50;24.85;;;14.30;;
37453;SDS011;23315;52.078;4.756;2023-11-22T08:43:16;27.08;;;16.85;;
37453;SDS011;23315;52.078;4.756;2023-11-22T08:45:41;28.77;;;17.50;;
37453;SDS011;23315;52.078;4.756;2023-11-22T08:48:09;30.13;;;16.88;;
37453;SDS011;23315;52.078;4.756;2023-11-22T08:50:34;28.83;;;15.98;;
37453;SDS011;23315;52.078;4.756;2023-11-22T08:53:00;25.50;;;17.25;;
37453;SDS011;23315;52.078;4.756;2023-11-22T08:55:25;26.05;;;16.30;;
37453;SDS011;23315;52.078;4.756;2023-11-22T08:57:51;27.40;;;16.23;;
37453;SDS011;23315;52.078;4.756;2023-11-22T09:00:17;28.58;;;16.50;;
37453;SDS011;23315;52.078;4.756;2023-11-22T09:02:47;27.25;;;15.95;;
37453;SDS011;23315;52.078;4.756;2023-11-22T09:05:13;25.83;;;16.27;;
37453;SDS011;23315;52.078;4.756;2023-11-22T09:07:41;29.65;;;17.02;;
37453;SDS011;23315;52.078;4.756;2023-11-22T09:10:09;28.73;;;15.57;;
37453;SDS011;23315;52.078;4.756;2023-11-22T09:12:39;30.52;;;17.00;;
37453;SDS011;23315;52.078;4.756;2023-11-22T09:15:08;28.27;;;15.77;;
37453;SDS011;23315;52.078;4.756;2023-11-22T09:17:38;33.00;;;17.52;;
37453;SDS011;23315;52.078;4.756;2023-11-22T09:20:17;26.88;;;15.90;;
37453;SDS011;23315;52.078;4.756;2023-11-22T09:22:44;29.60;;;16.40;;
37453;SDS011;23315;52.078;4.756;2023-11-22T09:25:12;23.65;;;16.30;;
37453;SDS011;23315;52.078;4.756;2023-11-22T09:27:51;28.33;;;16.65;;
37453;SDS011;23315;52.078;4.756;2023-11-22T09:30:20;29.73;;;17.20;;
37453;SDS011;23315;52.078;4.756;2023-11-22T09:33:13;30.67;;;15.65;;
37453;SDS011;23315;52.078;4.756;2023-11-22T09:35:40;28.48;;;16.38;;
37453;SDS011;23315;52.078;4.756;2023-11-22T09:38:07;28.63;;;17.00;;
37453;SDS011;23315;52.078;4.756;2023-11-22T09:40:42;26.45;;;17.52;;
37453;SDS011;23315;52.078;4.756;2023-11-22T09:43:10;33.08;;;17.98;;
37453;SDS011;23315;52.078;4.756;2023-11-22T09:45:35;29.02;;;16.95;;
37453;SDS011;23315;52.078;4.756;2023-11-22T09:48:03;29.70;;;17.33;;
37453;SDS011;23315;52.078;4.756;2023-11-22T09:50:39;28.20;;;17.25;;
37453;SDS011;23315;52.078;4.756;2023-11-22T09:53:22;26.15;;;16.15;;
37453;SDS011;23315;52.078;4.756;2023-11-22T09:55:50;25.33;;;15.68;;
37453;SDS011;23315;52.078;4.756;2023-11-22T09:58:16;27.98;;;16.60;;
37453;SDS011;23315;52.078;4.756;2023-11-22T10:00:41;26.25;;;16.63;;
37453;SDS011;23315;52.078;4.756;2023-11-22T10:03:08;23.08;;;14.93;;
37453;SDS011;23315;52.078;4.756;2023-11-22T10:05:34;23.90;;;14.88;;
37453;SDS011;23315;52.078;4.756;2023-11-22T10:08:00;23.77;;;14.88;;
37453;SDS011;23315;52.078;4.756;2023-11-22T10:10:25;26.92;;;15.02;;
37453;SDS011;23315;52.078;4.756;2023-11-22T10:12:54;30.02;;;15.95;;
37453;SDS011;23315;52.078;4.756;2023-11-22T10:15:23;26.85;;;14.77;;
37453;SDS011;23315;52.078;4.756;2023-11-22T10:17:56;23.13;;;14.20;;
37453;SDS011;23315;52.078;4.756;2023-11-22T10:20:56;23.48;;;13.88;;
37453;SDS011;23315;52.078;4.756;2023-11-22T10:23:17;22.00;;;13.32;;
37453;SDS011;23315;52.078;4.756;2023-11-22T10:25:44;20.10;;;12.88;;
37453;SDS011;23315;52.078;4.756;2023-11-22T10:28:12;19.27;;;13.43;;
37453;SDS011;23315;52.078;4.756;2023-11-22T10:30:38;21.42;;;13.55;;
37453;SDS011;23315;52.078;4.756;2023-11-22T10:33:05;22.30;;;13.63;;
37453;SDS011;23315;52.078;4.756;2023-11-22T10:35:31;22.10;;;15.00;;
37453;SDS011;23315;52.078;4.756;2023-11-22T10:37:56;20.35;;;14.00;;
37453;SDS011;23315;52.078;4.756;2023-11-22T10:40:21;19.10;;;13.13;;
37453;SDS011;23315;52.078;4.756;2023-11-22T10:42:47;21.38;;;14.82;;
37453;SDS011;23315;52.078;4.756;2023-11-22T10:45:14;22.33;;;14.02;;
37453;SDS011;23315;52.078;4.756;2023-11-22T10:47:42;24.52;;;14.73;;
37453;SDS011;23315;52.078;4.756;2023-11-22T10:50:08;20.33;;;13.93;;
37453;SDS011;23315;52.078;4.756;2023-11-22T10:52:35;19.90;;;13.43;;
37453;SDS011;23315;52.078;4.756;2023-11-22T10:55:02;19.63;;;13.63;;
37453;SDS011;23315;52.078;4.756;2023-11-22T10:57:31;21.05;;;12.35;;
37453;SDS011;23315;52.078;4.756;2023-11-22T10:59:57;22.77;;;13.25;;
37453;SDS011;23315;52.078;4.756;2023-11-22T11:02:27;21.90;;;13.55;;
37453;SDS011;23315;52.078;4.756;2023-11-22T11:05:00;21.00;;;13.07;;
37453;SDS011;23315;52.078;4.756;2023-11-22T11:07:32;20.88;;;13.43;;
37453;SDS011;23315;52.078;4.756;2023-11-22T11:10:01;19.92;;;13.05;;
37453;SDS011;23315;52.078;4.756;2023-11-22T11:12:26;19.92;;;12.93;;
37453;SDS011;23315;52.078;4.756;2023-11-22T11:14:52;23.30;;;13.68;;
37453;SDS011;23315;52.078;4.756;2023-11-22T11:17:17;22.20;;;13.38;;
37453;SDS011;23315;52.078;4.756;2023-11-22T11:19:43;21.20;;;13.82;;
37453;SDS011;23315;52.078;4.756;2023-11-22T11:22:08;21.42;;;13.80;;
37453;SDS011;23315;52.078;4.756;2023-11-22T11:24:38;21.92;;;13.45;;
37453;SDS011;23315;52.078;4.756;2023-11-22T11:27:06;19.73;;;12.30;;
37453;SDS011;23315;52.078;4.756;2023-11-22T11:29:32;19.02;;;12.70;;
37453;SDS011;23315;52.078;4.756;2023-11-22T11:31:58;19.40;;;12.60;;
37453;SDS011;23315;52.078;4.756;2023-11-22T11:34:24;21.67;;;13.07;;
37453;SDS011;23315;52.078;4.756;2023-11-22T11:36:52;21.75;;;13.65;;
37453;SDS011;23315;52.078;4.756;2023-11-22T11:39:24;20.10;;;12.32;;
37453;SDS011;23315;52.078;4.756;2023-11-22T11:41:56;17.95;;;12.25;;
37453;SDS011;23315;52.078;4.756;2023-11-22T11:44:33;21.48;;;13.00;;
37453;SDS011;23315;52.078;4.756;2023-11-22T11:46:58;18.50;;;11.60;;
37453;SDS011;23315;52.078;4.756;2023-11-22T11:49:23;21.05;;;13.02;;
37453;SDS011;23315;52.078;4.756;2023-11-22T11:51:50;19.45;;;12.85;;
37453;SDS011;23315;52.078;4.756;2023-11-22T11:54:16;18.85;;;11.98;;
37453;SDS011;23315;52.078;4.756;2023-11-22T11:56:41;22.00;;;13.77;;
37453;SDS011;23315;52.078;4.756;2023-11-22T11:59:08;19.90;;;13.13;;
37453;SDS011;23315;52.078;4.756;2023-11-22T12:01:34;18.00;;;12.25;;
37453;SDS011;23315;52.078;4.756;2023-11-22T12:04:00;21.23;;;12.77;;
37453;SDS011;23315;52.078;4.756;2023-11-22T12:06:28;19.05;;;12.73;;
37453;SDS011;23315;52.078;4.756;2023-11-22T12:08:54;16.35;;;11.90;;
37453;SDS011;23315;52.078;4.756;2023-11-22T12:11:19;16.55;;;11.32;;
37453;SDS011;23315;52.078;4.756;2023-11-22T12:13:45;17.20;;;12.05;;
37453;SDS011;23315;52.078;4.756;2023-11-22T12:16:15;24.42;;;12.43;;
37453;SDS011;23315;52.078;4.756;2023-11-22T12:18:42;17.27;;;11.60;;
37453;SDS011;23315;52.078;4.756;2023-11-22T12:21:08;16.58;;;11.23;;
37453;SDS011;23315;52.078;4.756;2023-11-22T12:23:37;18.50;;;11.45;;
37453;SDS011;23315;52.078;4.756;2023-11-22T12:26:03;21.50;;;12.68;;
37453;SDS011;23315;52.078;4.756;2023-11-22T12:28:29;18.88;;;10.95;;
37453;SDS011;23315;52.078;4.756;2023-11-22T12:30:55;16.15;;;10.88;;
37453;SDS011;23315;52.078;4.756;2023-11-22T12:33:20;19.25;;;12.07;;
37453;SDS011;23315;52.078;4.756;2023-11-22T12:35:46;20.48;;;11.85;;
37453;SDS011;23315;52.078;4.756;2023-11-22T12:38:12;18.00;;;11.70;;
37453;SDS011;23315;52.078;4.756;2023-11-22T12:40:37;16.90;;;11.57;;
37453;SDS011;23315;52.078;4.756;2023-11-22T12:43:03;18.40;;;12.95;;
37453;SDS011;23315;52.078;4.756;2023-11-22T12:45:29;20.65;;;12.55;;
37453;SDS011;23315;52.078;4.756;2023-11-22T12:47:55;20.48;;;12.27;;
37453;SDS011;23315;52.078;4.756;2023-11-22T12:53:11;19.05;;;11.80;;
37453;SDS011;23315;52.078;4.756;2023-11-22T12:55:38;20.52;;;12.55;;
37453;SDS011;23315;52.078;4.756;2023-11-22T12:58:10;16.20;;;11.30;;
37453;SDS011;23315;52.078;4.756;2023-11-22T13:00:35;19.50;;;12.25;;
37453;SDS011;23315;52.078;4.756;2023-11-22T13:03:01;21.73;;;12.52;;
37453;SDS011;23315;52.078;4.756;2023-11-22T13:05:27;18.92;;;12.43;;
37453;SDS011;23315;52.078;4.756;2023-11-22T13:07:52;21.23;;;12.13;;
37453;SDS011;23315;52.078;4.756;2023-11-22T13:10:18;19.98;;;12.05;;
37453;SDS011;23315;52.078;4.756;2023-11-22T13:12:44;18.00;;;12.07;;
37453;SDS011;23315;52.078;4.756;2023-11-22T13:15:11;20.20;;;12.27;;
37453;SDS011;23315;52.078;4.756;2023-11-22T13:17:37;21.33;;;13.40;;
37453;SDS011;23315;52.078;4.756;2023-11-22T13:20:05;23.70;;;13.80;;
37453;SDS011;23315;52.078;4.756;2023-11-22T13:22:38;22.98;;;12.88;;
37453;SDS011;23315;52.078;4.756;2023-11-22T13:25:04;23.83;;;13.05;;
37453;SDS011;23315;52.078;4.756;2023-11-22T13:27:31;24.88;;;13.10;;
37453;SDS011;23315;52.078;4.756;2023-11-22T13:29:56;18.95;;;12.00;;
37453;SDS011;23315;52.078;4.756;2023-11-22T13:32:23;23.98;;;13.57;;
37453;SDS011;23315;52.078;4.756;2023-11-22T13:34:49;23.08;;;13.25;;
37453;SDS011;23315;52.078;4.756;2023-11-22T13:37:23;19.77;;;13.32;;
37453;SDS011;23315;52.078;4.756;2023-11-22T13:39:48;22.23;;;13.52;;
37453;SDS011;23315;52.078;4.756;2023-11-22T13:42:14;23.77;;;11.95;;
37453;SDS011;23315;52.078;4.756;2023-11-22T13:44:39;23.38;;;12.88;;
37453;SDS011;23315;52.078;4.756;2023-11-22T13:47:06;23.67;;;12.40;;
37453;SDS011;23315;52.078;4.756;2023-11-22T13:49:33;22.25;;;13.25;;
37453;SDS011;23315;52.078;4.756;2023-11-22T13:52:02;21.08;;;12.68;;
37453;SDS011;23315;52.078;4.756;2023-11-22T13:54:28;19.20;;;11.35;;
37453;SDS011;23315;52.078;4.756;2023-11-22T13:56:53;22.48;;;12.00;;
37453;SDS011;23315;52.078;4.756;2023-11-22T13:59:18;22.05;;;13.45;;
37453;SDS011;23315;52.078;4.756;2023-11-22T14:01:44;16.83;;;11.20;;
37453;SDS011;23315;52.078;4.756;2023-11-22T14:04:10;19.95;;;12.02;;
37453;SDS011;23315;52.078;4.756;2023-11-22T14:06:36;21.80;;;11.57;;
37453;SDS011;23315;52.078;4.756;2023-11-22T14:09:01;19.33;;;12.10;;
37453;SDS011;23315;52.078;4.756;2023-11-22T14:11:26;18.98;;;11.13;;
37453;SDS011;23315;52.078;4.756;2023-11-22T14:13:52;20.13;;;11.98;;
37453;SDS011;23315;52.078;4.756;2023-11-22T14:16:17;20.17;;;12.52;;
37453;SDS011;23315;52.078;4.756;2023-11-22T14:18:43;21.83;;;10.98;;
37453;SDS011;23315;52.078;4.756;2023-11-22T14:21:08;16.50;;;11.77;;
37453;SDS011;23315;52.078;4.756;2023-11-22T14:23:35;19.70;;;11.40;;
37453;SDS011;23315;52.078;4.756;2023-11-22T14:26:00;17.02;;;11.35;;
37453;SDS011;23315;52.078;4.756;2023-11-22T14:28:26;18.17;;;11.30;;